Time;durP1;ratioP1;P1;durP2;ratioP2;P2;SDS_P1;SDS_P2;PMS_P1;PMS_P2;Temp;Humidity;BMP_temperature;BMP_pressure;BME280_temperature;BME280_humidity;BME280_pressure;Samples;Min_cycle;Max_cycle;Signal;HPM_P1;HPM_P2
2023/09/02 00:01:23;;;;;;;6.38;2.80;;;14.60;99.90;;;;;;4915080;29;20119;-84
2023/09/02 00:03:49;;;;;;;5.55;2.95;;;14.50;99.90;;;;;;4915522;29;20059;-84
2023/09/02 00:06:14;;;;;;;4.75;2.67;;;14.50;99.90;;;;;;4916354;29;20024;-84
2023/09/02 00:08:40;;;;;;;6.80;2.65;;;14.50;99.90;;;;;;4916054;29;20119;-84
2023/09/02 00:11:06;;;;;;;5.68;2.63;;;14.50;99.90;;;;;;4917192;29;20083;-84
2023/09/02 00:13:32;;;;;;;4.75;2.70;;;14.50;99.90;;;;;;4916692;29;20951;-84
2023/09/02 00:15:57;;;;;;;5.18;2.78;;;14.40;99.90;;;;;;4915272;29;20032;-84
2023/09/02 00:18:23;;;;;;;3.58;2.60;;;14.40;99.90;;;;;;4916827;29;20051;-84
2023/09/02 00:20:48;;;;;;;5.03;3.05;;;14.40;99.90;;;;;;4917192;29;20043;-84
2023/09/02 00:23:14;;;;;;;6.00;2.78;;;14.40;99.90;;;;;;4917684;29;20028;-84
2023/09/02 00:25:39;;;;;;;5.63;3.42;;;14.40;99.90;;;;;;4915589;29;20059;-84
2023/09/02 00:28:05;;;;;;;4.55;2.92;;;14.40;99.90;;;;;;4915295;29;20060;-84
2023/09/02 00:30:30;;;;;;;5.88;2.75;;;14.30;99.90;;;;;;4914878;29;20063;-84
2023/09/02 00:32:56;;;;;;;6.88;2.75;;;14.30;99.90;;;;;;4915105;29;21470;-84
2023/09/02 00:35:21;;;;;;;5.25;2.78;;;14.30;99.90;;;;;;4915554;29;20500;-84
2023/09/02 00:37:47;;;;;;;9.68;3.00;;;14.30;99.90;;;;;;4915123;29;20440;-84
2023/09/02 00:40:17;;;;;;;4.32;2.63;;;14.30;99.90;;;;;;4914939;29;20016;-84
2023/09/02 00:42:44;;;;;;;6.63;2.83;;;14.30;99.90;;;;;;4922496;29;20027;-84
2023/09/02 00:45:10;;;;;;;6.45;2.90;;;14.30;99.90;;;;;;4920259;29;20114;-84
2023/09/02 00:47:35;;;;;;;7.15;2.75;;;14.20;99.90;;;;;;4919502;29;20384;-84
2023/09/02 00:50:02;;;;;;;5.65;3.03;;;14.20;99.90;;;;;;4920325;29;20038;-84
2023/09/02 00:52:27;;;;;;;6.53;2.90;;;14.20;99.90;;;;;;4922839;29;20028;-84
2023/09/02 00:54:53;;;;;;;3.55;2.60;;;14.20;99.90;;;;;;4920438;29;20669;-85
2023/09/02 00:57:19;;;;;;;5.53;2.78;;;14.10;99.90;;;;;;4919266;29;20027;-84
2023/09/02 00:59:44;;;;;;;5.63;2.90;;;14.10;99.90;;;;;;4919861;29;20028;-84
2023/09/02 01:02:11;;;;;;;6.32;2.60;;;14.10;99.90;;;;;;4918823;29;20030;-84
2023/09/02 01:04:36;;;;;;;8.48;3.03;;;14.10;99.90;;;;;;4918261;29;20114;-84
2023/09/02 01:07:02;;;;;;;3.50;2.80;;;14.00;99.90;;;;;;4917117;29;21404;-84
2023/09/02 01:09:30;;;;;;;6.47;2.58;;;14.10;99.90;;;;;;4920688;29;20047;-84
2023/09/02 01:11:56;;;;;;;4.45;2.80;;;14.00;99.90;;;;;;4918401;29;20028;-84
2023/09/02 01:14:22;;;;;;;3.60;2.65;;;14.00;99.90;;;;;;4918629;29;20044;-84
2023/09/02 01:16:47;;;;;;;8.05;2.80;;;14.00;99.90;;;;;;4918395;29;20106;-84
2023/09/02 01:19:16;;;;;;;5.35;2.92;;;14.00;99.90;;;;;;4917588;29;20107;-84
2023/09/02 01:22:15;;;;;;;5.68;2.53;;;13.90;99.90;;;;;;4917671;29;20143;-84
2023/09/02 01:24:56;;;;;;;4.88;2.70;;;13.90;99.90;;;;;;4919067;29;20040;-84
2023/09/02 01:27:39;;;;;;;4.03;2.70;;;13.90;99.90;;;;;;4918047;29;20566;-84
2023/09/02 01:30:14;;;;;;;5.53;2.72;;;13.90;99.90;;;;;;4917656;29;20114;-84
2023/09/02 01:32:42;;;;;;;;;;;13.90;99.90;;;;;;4917925;29;20059;-84
2023/09/02 01:35:08;;;;;;;5.88;2.65;;;13.90;99.90;;;;;;4918707;29;19923;-84
2023/09/02 01:37:42;;;;;;;4.72;3.33;;;13.90;99.90;;;;;;4917621;29;20023;-84
2023/09/02 01:40:09;;;;;;;6.55;2.80;;;13.80;99.90;;;;;;4918607;29;20036;-84
2023/09/02 01:42:36;;;;;;;5.40;2.47;;;13.80;99.90;;;;;;4919575;29;20028;-83
2023/09/02 01:45:02;;;;;;;6.28;2.60;;;13.80;99.90;;;;;;4916791;29;20031;-84
2023/09/02 01:47:28;;;;;;;6.82;2.58;;;13.80;99.90;;;;;;4918940;29;20135;-84
2023/09/02 01:49:55;;;;;;;6.70;2.90;;;13.80;99.90;;;;;;4918200;29;20038;-84
2023/09/02 01:52:22;;;;;;;7.97;3.03;;;13.70;99.90;;;;;;4917598;28;20032;-84
2023/09/02 01:54:48;;;;;;;4.50;2.80;;;13.70;99.90;;;;;;4917866;29;20063;-85
2023/09/02 01:57:13;;;;;;;6.25;2.60;;;13.70;99.90;;;;;;4917681;29;20032;-84
2023/09/02 01:59:39;;;;;;;5.32;2.70;;;13.70;99.90;;;;;;4919098;29;20423;-84
2023/09/02 02:02:05;;;;;;;5.28;2.55;;;13.70;99.90;;;;;;4917181;29;20036;-84
2023/09/02 02:04:35;;;;;;;4.85;2.80;;;13.60;99.90;;;;;;4917613;29;20027;-84
2023/09/02 02:07:05;;;;;;;6.57;2.75;;;13.70;99.90;;;;;;4916319;29;20035;-84
2023/09/02 02:09:38;;;;;;;4.63;3.05;;;13.70;99.90;;;;;;4917694;29;20079;-84
2023/09/02 02:12:04;;;;;;;7.03;3.15;;;13.60;99.90;;;;;;4917421;29;20032;-84
2023/09/02 02:14:33;;;;;;;5.82;3.05;;;13.60;99.90;;;;;;4918621;29;20581;-84
2023/09/02 02:16:59;;;;;;;5.72;2.60;;;13.60;99.90;;;;;;4921570;29;20783;-84
2023/09/02 02:19:24;;;;;;;5.18;2.65;;;13.60;99.90;;;;;;4917138;29;20032;-84
2023/09/02 02:21:51;;;;;;;3.72;2.78;;;13.50;99.90;;;;;;4916764;29;20553;-84
2023/09/02 02:24:16;;;;;;;5.43;2.50;;;13.50;99.90;;;;;;4917598;29;20036;-84
2023/09/02 02:26:42;;;;;;;3.58;2.63;;;13.50;99.90;;;;;;4918684;29;20028;-84
2023/09/02 02:29:07;;;;;;;4.13;2.63;;;13.50;99.90;;;;;;4917312;29;20043;-84
2023/09/02 02:31:34;;;;;;;5.03;2.75;;;13.50;99.90;;;;;;4916177;29;20039;-84
2023/09/02 02:34:00;;;;;;;4.03;2.50;;;13.40;99.90;;;;;;4918887;29;20038;-84
2023/09/02 02:36:25;;;;;;;6.90;2.83;;;13.40;99.90;;;;;;4916274;29;20036;-84
2023/09/02 02:38:51;;;;;;;4.55;2.70;;;13.30;99.90;;;;;;4916748;29;20110;-83
2023/09/02 02:41:16;;;;;;;5.20;2.60;;;13.30;99.90;;;;;;4916740;29;20035;-83
2023/09/02 02:43:42;;;;;;;9.73;3.00;;;13.30;99.90;;;;;;4917378;29;20043;-84
2023/09/02 02:46:07;;;;;;;4.45;2.40;;;13.20;99.90;;;;;;4916655;29;20057;-83
2023/09/02 02:48:33;;;;;;;5.72;2.38;;;13.20;99.90;;;;;;4917897;29;20534;-84
2023/09/02 02:50:59;;;;;;;7.28;3.15;;;13.20;99.90;;;;;;4915724;29;20035;-84
2023/09/02 02:53:24;;;;;;;4.28;3.10;;;13.20;99.90;;;;;;4919679;29;20023;-84
2023/09/02 02:55:50;;;;;;;6.07;2.45;;;13.20;99.90;;;;;;4916203;29;20582;-84
2023/09/02 02:58:16;;;;;;;6.32;3.00;;;13.10;99.90;;;;;;4917039;29;20458;-84
2023/09/02 03:00:43;;;;;;;3.97;2.70;;;13.10;99.90;;;;;;4915914;29;20027;-83
2023/09/02 03:03:09;;;;;;;7.10;3.03;;;13.10;99.90;;;;;;4917204;29;20034;-84
2023/09/02 03:05:39;;;;;;;3.92;2.63;;;13.10;99.90;;;;;;4917341;29;20047;-84
2023/09/02 03:08:06;;;;;;;6.97;3.00;;;13.10;99.90;;;;;;4917131;29;20034;-84
2023/09/02 03:10:35;;;;;;;4.85;2.70;;;13.10;99.90;;;;;;4917500;29;20487;-83
2023/09/02 03:13:04;;;;;;;6.40;2.80;;;13.10;99.90;;;;;;4916611;29;20036;-84
2023/09/02 03:15:29;;;;;;;5.30;2.65;;;13.10;99.90;;;;;;4915425;29;20042;-84
2023/09/02 03:17:55;;;;;;;4.30;2.70;;;13.00;99.90;;;;;;4917604;29;20032;-83
2023/09/02 03:20:20;;;;;;;4.70;2.95;;;13.00;99.90;;;;;;4917561;29;20036;-84
2023/09/02 03:22:46;;;;;;;4.15;2.92;;;13.00;99.90;;;;;;4918376;29;20032;-83
2023/09/02 03:25:12;;;;;;;6.05;2.67;;;13.00;99.90;;;;;;4915492;29;20047;-83
2023/09/02 03:27:41;;;;;;;5.43;2.78;;;13.00;99.90;;;;;;4915206;29;20039;-84
2023/09/02 03:30:08;;;;;;;6.38;2.72;;;13.00;99.90;;;;;;4916570;29;20107;-83
2023/09/02 03:32:34;;;;;;;6.13;2.90;;;13.00;99.90;;;;;;4918250;29;20027;-84
2023/09/02 03:34:59;;;;;;;5.57;2.63;;;12.90;99.90;;;;;;4915016;29;20091;-84
2023/09/02 03:37:26;;;;;;;5.85;2.85;;;12.90;99.90;;;;;;4915306;29;20972;-84
2023/09/02 03:39:53;;;;;;;4.80;2.58;;;12.90;99.90;;;;;;4917520;29;20041;-84
2023/09/02 03:42:19;;;;;;;5.03;2.95;;;12.90;99.90;;;;;;4917563;29;20092;-83
2023/09/02 03:44:44;;;;;;;3.42;2.47;;;12.80;99.90;;;;;;4919260;29;20035;-83
2023/09/02 03:47:10;;;;;;;6.20;2.67;;;12.80;99.90;;;;;;4915956;29;20036;-83
2023/09/02 03:49:35;;;;;;;3.85;2.50;;;12.80;99.90;;;;;;4917334;29;20103;-83
2023/09/02 03:52:01;;;;;;;5.00;2.80;;;12.70;99.90;;;;;;4916906;29;20043;-83
2023/09/02 03:54:26;;;;;;;5.30;2.80;;;12.70;99.90;;;;;;4915882;29;20037;-84
2023/09/02 03:56:52;;;;;;;5.13;2.88;;;12.70;99.90;;;;;;4914597;29;20032;-84
2023/09/02 03:59:19;;;;;;;4.75;2.50;;;12.70;99.90;;;;;;4916768;29;20027;-84
2023/09/02 04:01:45;;;;;;;6.50;2.70;;;12.70;99.90;;;;;;4915950;29;20103;-84
2023/09/02 04:04:10;;;;;;;7.28;2.67;;;12.70;99.90;;;;;;4915507;29;20659;-83
2023/09/02 04:06:37;;;;;;;5.40;2.60;;;12.70;99.90;;;;;;4917917;29;20035;-83
2023/09/02 04:09:05;;;;;;;4.45;2.88;;;12.60;99.90;;;;;;4914878;29;20575;-84
2023/09/02 04:11:30;;;;;;;4.78;2.35;;;12.60;99.90;;;;;;4916699;29;20051;-84
2023/09/02 04:13:56;;;;;;;4.63;2.50;;;12.60;99.90;;;;;;4915001;29;20575;-83
2023/09/02 04:16:22;;;;;;;4.88;2.38;;;12.60;99.90;;;;;;4917543;29;20020;-84
2023/09/02 04:18:47;;;;;;;4.93;2.50;;;12.60;99.90;;;;;;4921925;29;20036;-84
2023/09/02 04:21:13;;;;;;;3.75;2.80;;;12.60;99.90;;;;;;4918004;29;20140;-83
2023/09/02 04:23:39;;;;;;;4.65;2.67;;;12.60;99.90;;;;;;4920615;29;20027;-83
2023/09/02 04:26:05;;;;;;;5.78;2.40;;;12.60;99.90;;;;;;4920723;29;20032;-83
2023/09/02 04:28:30;;;;;;;4.60;2.80;;;12.50;99.90;;;;;;4919699;29;20039;-82
2023/09/02 04:30:57;;;;;;;6.90;2.92;;;12.50;99.90;;;;;;4920715;29;20070;-83
2023/09/02 04:33:24;;;;;;;4.18;2.42;;;12.50;99.90;;;;;;4918918;29;20665;-83
2023/09/02 04:35:49;;;;;;;4.15;2.80;;;12.50;99.90;;;;;;4923198;29;20035;-84
2023/09/02 04:38:15;;;;;;;6.50;2.80;;;12.50;99.90;;;;;;4918485;29;20395;-83
2023/09/02 04:40:42;;;;;;;3.75;2.63;;;12.50;99.90;;;;;;4919714;29;20118;-83
2023/09/02 04:43:09;;;;;;;5.60;2.90;;;12.50;99.90;;;;;;4920019;29;20054;-83
2023/09/02 04:45:37;;;;;;;4.93;2.55;;;12.50;99.90;;;;;;4922400;29;20031;-83
2023/09/02 04:48:04;;;;;;;3.70;2.85;;;12.50;99.90;;;;;;4918953;29;20055;-83
2023/09/02 04:50:31;;;;;;;3.25;2.60;;;12.50;99.90;;;;;;4920258;29;20052;-83
2023/09/02 04:52:57;;;;;;;6.90;2.80;;;12.50;99.90;;;;;;4919502;29;20063;-83
2023/09/02 04:55:25;;;;;;;4.32;2.70;;;12.50;99.90;;;;;;4918731;29;20119;-83
2023/09/02 04:57:57;;;;;;;5.78;2.63;;;12.50;99.90;;;;;;4920643;29;20027;-83
2023/09/02 05:00:27;;;;;;;4.25;2.80;;;12.50;99.90;;;;;;4917785;29;20031;-83
2023/09/02 05:02:53;;;;;;;4.13;2.72;;;12.60;99.90;;;;;;4919411;29;20099;-84
2023/09/02 05:05:21;;;;;;;3.63;3.03;;;12.60;99.90;;;;;;4920228;29;20391;-83
2023/09/02 05:07:47;;;;;;;5.15;2.85;;;12.70;99.90;;;;;;4921263;29;20028;-84
2023/09/02 05:10:13;;;;;;;4.20;2.72;;;12.70;99.90;;;;;;4920835;29;20038;-83
2023/09/02 05:12:39;;;;;;;5.70;2.88;;;12.80;99.90;;;;;;4918894;29;20024;-84
2023/09/02 05:15:05;;;;;;;3.78;2.40;;;12.80;99.90;;;;;;4918491;29;20032;-83
2023/09/02 05:17:32;;;;;;;4.63;2.97;;;12.90;99.90;;;;;;4918230;29;20036;-83
2023/09/02 05:20:03;;;;;;;4.93;2.75;;;12.90;99.90;;;;;;4919079;29;20041;-83
2023/09/02 05:22:28;;;;;;;4.15;2.58;;;13.00;99.90;;;;;;4918116;29;20495;-83
2023/09/02 05:24:54;;;;;;;5.60;3.05;;;13.10;99.90;;;;;;4917162;29;20055;-83
2023/09/02 05:27:20;;;;;;;5.28;2.47;;;13.10;99.90;;;;;;4917774;29;20038;-83
2023/09/02 05:29:46;;;;;;;6.40;2.90;;;13.10;99.90;;;;;;4917730;29;20050;-83
2023/09/02 05:32:16;;;;;;;5.38;2.90;;;13.10;99.90;;;;;;4919827;29;21424;-83
2023/09/02 05:34:41;;;;;;;9.63;3.60;;;13.20;99.90;;;;;;4917847;29;20134;-84
2023/09/02 05:37:07;;;;;;;4.50;2.90;;;13.20;99.90;;;;;;4918178;29;20547;-83
2023/09/02 05:39:33;;;;;;;4.28;2.58;;;13.20;99.90;;;;;;4918853;29;20424;-83
2023/09/02 05:41:58;;;;;;;4.63;2.60;;;13.30;99.90;;;;;;4916865;29;20170;-83
2023/09/02 05:44:24;;;;;;;5.10;3.10;;;13.40;99.90;;;;;;4920535;29;20036;-83
2023/09/02 05:46:49;;;;;;;4.38;2.65;;;13.50;99.90;;;;;;4919712;29;20411;-84
2023/09/02 05:49:16;;;;;;;4.03;2.47;;;13.60;99.90;;;;;;4919386;29;20035;-84
2023/09/02 05:51:42;;;;;;;5.28;2.67;;;13.60;99.90;;;;;;4917358;29;20071;-84
2023/09/02 05:54:09;;;;;;;3.95;2.80;;;13.70;99.90;;;;;;4917644;29;20765;-83
2023/09/02 05:56:38;;;;;;;4.10;2.78;;;13.80;99.90;;;;;;4919525;29;20566;-84
2023/09/02 05:59:04;;;;;;;4.97;3.47;;;13.90;99.90;;;;;;4918028;29;20043;-83
2023/09/02 06:01:30;;;;;;;4.53;2.58;;;14.10;99.90;;;;;;4917577;29;20030;-84
2023/09/02 06:03:56;;;;;;;4.15;2.60;;;14.20;99.90;;;;;;4919205;29;20060;-84
2023/09/02 06:06:22;;;;;;;5.13;2.60;;;14.30;99.90;;;;;;4919520;29;20094;-84
2023/09/02 06:08:48;;;;;;;6.45;2.63;;;14.40;99.90;;;;;;4916687;29;20079;-84
2023/09/02 06:11:14;;;;;;;7.80;2.40;;;14.60;99.90;;;;;;4917971;29;20072;-84
2023/09/02 06:13:39;;;;;;;3.25;2.35;;;14.70;99.90;;;;;;4918573;29;20036;-83
2023/09/02 06:16:06;;;;;;;4.20;2.47;;;14.80;99.90;;;;;;4917687;29;20039;-84
2023/09/02 06:18:33;;;;;;;4.50;2.08;;;15.00;99.90;;;;;;4918882;29;20031;-84
2023/09/02 06:21:06;;;;;;;5.75;2.30;;;15.20;99.90;;;;;;4918071;29;20165;-84
2023/09/02 06:23:32;;;;;;;5.88;2.63;;;15.30;99.90;;;;;;4918676;29;20032;-84
2023/09/02 06:25:59;;;;;;;3.95;2.28;;;15.50;99.90;;;;;;4919728;29;20063;-84
2023/09/02 06:28:25;;;;;;;4.88;2.45;;;15.60;99.90;;;;;;4917622;29;20023;-84
2023/09/02 06:30:51;;;;;;;4.10;2.00;;;15.70;99.90;;;;;;4917296;29;20024;-84
2023/09/02 06:33:18;;;;;;;4.53;2.50;;;15.90;99.90;;;;;;4918311;29;20020;-84
2023/09/02 06:35:43;;;;;;;3.88;2.20;;;16.00;99.90;;;;;;4915996;29;20035;-84
2023/09/02 06:38:09;;;;;;;3.15;2.63;;;16.20;99.90;;;;;;4916121;29;20050;-84
2023/09/02 06:40:34;;;;;;;4.15;2.00;;;16.30;99.90;;;;;;4916426;29;20123;-84
2023/09/02 06:43:00;;;;;;;4.22;2.25;;;16.40;99.90;;;;;;4916933;29;20028;-84
2023/09/02 06:45:26;;;;;;;2.97;2.13;;;16.50;99.90;;;;;;4918282;29;20027;-83
2023/09/02 06:47:51;;;;;;;4.82;2.40;;;16.60;99.90;;;;;;4916249;29;20036;-84
2023/09/02 06:50:17;;;;;;;3.78;2.13;;;16.80;99.90;;;;;;4915542;29;20031;-85
2023/09/02 06:52:42;;;;;;;5.90;2.40;;;16.80;99.90;;;;;;4914520;29;20028;-84
2023/09/02 06:55:08;;;;;;;3.42;2.33;;;16.90;99.90;;;;;;4914580;29;20045;-84
2023/09/02 06:57:34;;;;;;;5.45;2.17;;;17.00;99.90;;;;;;4913655;29;20083;-84
2023/09/02 06:59:59;;;;;;;4.22;2.30;;;17.00;99.90;;;;;;4914205;29;20038;-84
2023/09/02 07:02:25;;;;;;;4.55;2.60;;;17.10;99.90;;;;;;4915016;29;20372;-84
2023/09/02 07:04:50;;;;;;;4.30;2.13;;;17.20;99.90;;;;;;4914653;29;20054;-84
2023/09/02 07:07:16;;;;;;;3.33;2.15;;;17.20;99.90;;;;;;4914000;29;20098;-84
2023/09/02 07:09:42;;;;;;;2.78;1.85;;;17.30;99.90;;;;;;4913277;29;20077;-83
2023/09/02 07:12:08;;;;;;;4.05;2.13;;;17.30;99.90;;;;;;4914575;29;20660;-84
2023/09/02 07:14:33;;;;;;;3.60;2.20;;;17.50;99.90;;;;;;4913323;29;20103;-84
2023/09/02 07:16:59;;;;;;;5.47;2.10;;;17.60;99.90;;;;;;4914273;29;20023;-84
2023/09/02 07:19:25;;;;;;;3.40;2.40;;;17.70;99.90;;;;;;4914111;29;20035;-84
2023/09/02 07:21:50;;;;;;;3.95;2.20;;;17.80;99.90;;;;;;4913644;29;20091;-84
2023/09/02 07:24:16;;;;;;;5.28;2.10;;;17.80;99.90;;;;;;4914990;29;20444;-85
2023/09/02 07:26:42;;;;;;;4.28;2.15;;;17.90;99.90;;;;;;4913543;29;20036;-84
2023/09/02 07:29:07;;;;;;;3.63;2.08;;;18.00;99.90;;;;;;4915321;29;20039;-84
2023/09/02 07:31:33;;;;;;;4.78;2.05;;;18.00;99.90;;;;;;4915916;29;20098;-84
2023/09/02 07:33:59;;;;;;;5.22;2.40;;;18.20;99.90;;;;;;4915038;29;20061;-84
2023/09/02 07:36:25;;;;;;;4.50;2.08;;;18.30;99.90;;;;;;4913813;29;20020;-84
2023/09/02 07:38:50;;;;;;;3.55;1.90;;;18.40;99.90;;;;;;4913981;29;20517;-84
2023/09/02 07:41:16;;;;;;;3.60;2.42;;;18.40;99.90;;;;;;4914385;29;20961;-84
2023/09/02 07:43:42;;;;;;;4.05;2.80;;;18.60;99.90;;;;;;4913937;29;20027;-84
2023/09/02 07:46:10;;;;;;;4.43;2.15;;;18.70;99.90;;;;;;4914357;29;20411;-84
2023/09/02 07:48:36;;;;;;;4.25;2.17;;;18.70;99.90;;;;;;4912080;29;20028;-85
2023/09/02 07:51:02;;;;;;;3.72;1.98;;;18.90;99.90;;;;;;4913789;29;20039;-85
2023/09/02 07:53:28;;;;;;;2.63;2.05;;;18.90;99.90;;;;;;4914306;29;20155;-84
2023/09/02 07:55:54;;;;;;;3.42;1.83;;;19.00;99.90;;;;;;4913079;29;20127;-84
2023/09/02 07:58:19;;;;;;;5.18;2.15;;;19.10;99.90;;;;;;4914604;29;20023;-84
2023/09/02 08:00:45;;;;;;;5.00;2.10;;;19.20;99.90;;;;;;4913914;29;20031;-84
2023/09/02 08:03:10;;;;;;;2.97;2.10;;;19.30;99.90;;;;;;4914495;29;20044;-84
2023/09/02 08:05:39;;;;;;;5.72;2.75;;;19.40;99.90;;;;;;4915444;29;21479;-85
2023/09/02 08:08:06;;;;;;;5.50;1.92;;;19.40;99.90;;;;;;4913201;29;21468;-84
2023/09/02 08:10:32;;;;;;;5.57;2.03;;;19.60;99.90;;;;;;4913434;29;20256;-84
2023/09/02 08:12:58;;;;;;;6.97;2.30;;;19.70;99.90;;;;;;4914572;29;20051;-84
2023/09/02 08:15:24;;;;;;;3.95;2.60;;;19.80;99.90;;;;;;4913914;29;20126;-84
2023/09/02 08:17:51;;;;;;;11.00;2.60;;;19.90;99.90;;;;;;4914255;29;20032;-84
2023/09/02 08:20:17;;;;;;;5.60;2.10;;;20.00;99.90;;;;;;4913814;29;20035;-84
2023/09/02 08:22:43;;;;;;;3.80;2.22;;;20.10;99.90;;;;;;4915027;29;20043;-85
2023/09/02 08:25:09;;;;;;;3.45;2.22;;;20.20;99.90;;;;;;4913809;29;20110;-84
2023/09/02 08:27:35;;;;;;;6.72;2.50;;;20.30;99.90;;;;;;4913086;29;20035;-84
2023/09/02 08:30:01;;;;;;;3.97;2.00;;;20.50;99.90;;;;;;4913896;29;20089;-85
2023/09/02 08:32:32;;;;;;;5.00;2.10;;;20.50;99.90;;;;;;4913479;29;20051;-84
2023/09/02 08:34:57;;;;;;;2.95;2.00;;;20.50;99.90;;;;;;4914124;29;20058;-84
2023/09/02 08:37:23;;;;;;;4.72;1.95;;;20.60;99.90;;;;;;4913410;29;20437;-84
2023/09/02 08:39:51;;;;;;;3.08;2.08;;;20.70;99.90;;;;;;4914716;29;20034;-84
2023/09/02 08:42:17;;;;;;;3.20;1.83;;;20.80;99.90;;;;;;4912812;29;20495;-85
2023/09/02 08:44:46;;;;;;;4.40;2.30;;;20.90;99.90;;;;;;4914140;29;20047;-85
2023/09/02 08:47:14;;;;;;;4.97;1.88;;;20.90;99.90;;;;;;4912791;29;20023;-85
2023/09/02 08:49:40;;;;;;;5.45;2.30;;;21.00;99.90;;;;;;4914367;29;20035;-85
2023/09/02 08:52:07;;;;;;;3.03;2.00;;;21.10;99.90;;;;;;4913407;29;20082;-84
2023/09/02 08:54:34;;;;;;;5.20;2.58;;;21.10;99.90;;;;;;4912608;29;20102;-85
2023/09/02 08:57:01;;;;;;;4.40;2.10;;;21.20;99.90;;;;;;4913313;29;20107;-84
2023/09/02 08:59:28;;;;;;;4.95;1.92;;;21.30;99.90;;;;;;4913411;29;20488;-85
2023/09/02 09:01:54;;;;;;;4.22;2.72;;;21.40;99.90;;;;;;4913925;29;20036;-85
2023/09/02 09:04:21;;;;;;;2.67;2.00;;;21.60;99.90;;;;;;4917654;29;20095;-85
2023/09/02 09:06:47;;;;;;;3.35;2.05;;;21.70;99.90;;;;;;4917574;29;20257;-85
2023/09/02 09:09:13;;;;;;;4.53;2.22;;;21.90;99.90;;;;;;4917692;29;20054;-84
2023/09/02 09:11:43;;;;;;;4.03;2.10;;;22.00;99.90;;;;;;4918715;29;20028;-85
2023/09/02 09:14:23;;;;;;;6.10;2.80;;;22.20;99.90;;;;;;4918148;29;20151;-85
2023/09/02 09:16:52;;;;;;;3.72;2.20;;;22.50;99.90;;;;;;4918256;29;20028;-85
2023/09/02 09:19:19;;;;;;;3.38;2.22;;;22.70;99.90;;;;;;4916956;29;20028;-86
2023/09/02 09:21:45;;;;;;;4.85;1.92;;;22.90;99.90;;;;;;4918327;29;20120;-85
2023/09/02 09:24:14;;;;;;;4.30;2.10;;;23.20;99.90;;;;;;4915726;29;20032;-85
2023/09/02 09:26:43;;;;;;;4.15;2.05;;;23.40;99.90;;;;;;4916063;29;20027;-85
2023/09/02 09:29:14;;;;;;;3.50;2.20;;;23.70;99.90;;;;;;4917098;29;20047;-85
2023/09/02 09:31:41;;;;;;;5.88;1.98;;;23.80;99.90;;;;;;4918112;29;20047;-85
2023/09/02 09:34:07;;;;;;;3.88;1.85;;;24.00;99.90;;;;;;4916311;29;20051;-85
2023/09/02 09:36:34;;;;;;;3.90;1.90;;;24.10;99.90;;;;;;4917539;29;20550;-85
2023/09/02 09:39:05;;;;;;;3.17;2.00;;;24.10;99.90;;;;;;4917122;29;20032;-85
2023/09/02 09:41:31;;;;;;;4.47;1.77;;;24.30;99.90;;;;;;4917626;29;20456;-86
2023/09/02 09:44:12;;;;;;;3.53;1.80;;;24.50;99.90;;;;;;4919591;29;20036;-84
2023/09/02 09:46:43;;;;;;;3.88;2.20;;;24.60;99.90;;;;;;4918174;29;20492;-85
2023/09/02 09:49:28;;;;;;;2.97;1.50;;;24.80;99.90;;;;;;4918991;29;20039;-86
2023/09/02 09:51:59;;;;;;;3.90;1.80;;;25.00;99.90;;;;;;4917701;29;20075;-85
2023/09/02 09:54:50;;;;;;;4.22;2.00;;;25.20;99.90;;;;;;4917205;29;20113;-85
2023/09/02 09:57:36;;;;;;;3.22;1.73;;;25.20;99.90;;;;;;4917677;29;20035;-85
2023/09/02 10:00:05;;;;;;;4.07;1.65;;;25.30;99.90;;;;;;4917703;29;20036;-85
2023/09/02 10:02:30;;;;;;;4.43;1.85;;;25.40;99.90;;;;;;4917210;29;20083;-85
2023/09/02 10:04:59;;;;;;;4.03;1.80;;;25.50;99.90;;;;;;4918225;29;20040;-85
2023/09/02 10:07:32;;;;;;;5.50;1.63;;;25.60;99.90;;;;;;4918381;29;20062;-85
2023/09/02 10:10:00;;;;;;;2.72;1.50;;;25.60;99.90;;;;;;4916728;29;20035;-86
2023/09/02 10:12:26;;;;;;;3.67;2.00;;;25.70;99.90;;;;;;4918523;29;20551;-84
2023/09/02 10:14:51;;;;;;;3.13;2.00;;;25.70;99.90;;;;;;4916807;29;20044;-85
2023/09/02 10:17:18;;;;;;;3.35;1.80;;;25.80;99.90;;;;;;4918125;29;20040;-86
2023/09/02 10:19:45;;;;;;;2.72;1.77;;;25.90;99.90;;;;;;4919708;29;20050;-86
2023/09/02 10:22:20;;;;;;;2.72;1.52;;;26.20;99.90;;;;;;4917688;29;20467;-85
2023/09/02 10:25:13;;;;;;;3.33;1.70;;;26.40;99.90;;;;;;4916830;29;21455;-85
2023/09/02 10:27:43;;;;;;;5.57;1.95;;;26.50;99.90;;;;;;4916833;29;20054;-85
2023/09/02 10:30:22;;;;;;;3.10;1.85;;;26.60;99.90;;;;;;4917733;29;20036;-85
2023/09/02 10:32:51;;;;;;;3.00;1.50;;;26.70;99.90;;;;;;4917755;29;20043;-85
2023/09/02 10:35:22;;;;;;;4.22;1.80;;;26.90;99.90;;;;;;4917154;29;20123;-86
2023/09/02 10:37:54;;;;;;;3.78;1.67;;;27.00;99.90;;;;;;4919913;29;20223;-85
2023/09/02 10:40:30;;;;;;;4.38;1.88;;;26.90;99.90;;;;;;4917152;29;20055;-85
2023/09/02 10:42:55;;;;;;;3.03;2.05;;;27.10;99.90;;;;;;4918867;29;20078;-86
2023/09/02 10:45:21;;;;;;;7.75;2.45;;;27.30;99.90;;;;;;4917135;29;20554;-86
2023/09/02 10:47:49;;;;;;;4.13;2.55;;;27.30;99.90;;;;;;4916422;29;20035;-85
2023/09/02 10:50:18;;;;;;;5.13;2.13;;;27.60;99.90;;;;;;4917160;29;20034;-87
2023/09/02 10:52:43;;;;;;;4.28;2.05;;;27.80;99.90;;;;;;4918624;29;20020;-86
2023/09/02 10:55:10;;;;;;;4.70;2.15;;;27.70;99.90;;;;;;4917823;29;20032;-85
2023/09/02 10:57:56;;;;;;;3.78;2.38;;;27.60;99.90;;;;;;4915901;29;20032;-86
2023/09/02 11:00:26;;;;;;;3.40;2.00;;;27.40;99.90;;;;;;4916638;29;20031;-86
2023/09/02 11:02:55;;;;;;;3.70;2.40;;;27.10;99.90;;;;;;4916237;29;20810;-85
2023/09/02 11:05:23;;;;;;;3.13;2.10;;;27.00;99.90;;;;;;4915627;29;20091;-87
2023/09/02 11:07:49;;;;;;;3.10;2.13;;;26.90;99.90;;;;;;4915280;29;20023;-86
2023/09/02 11:10:16;;;;;;;5.38;2.33;;;26.50;99.90;;;;;;4916832;29;20039;-85
2023/09/02 11:13:00;;;;;;;4.28;2.20;;;26.30;99.90;;;;;;4916583;29;20023;-86
2023/09/02 11:15:29;;;;;;;2.47;1.57;;;26.50;99.90;;;;;;4914901;29;20130;-86
2023/09/02 11:17:55;;;;;;;5.35;1.95;;;26.80;99.90;;;;;;4917484;29;20020;-86
2023/09/02 11:20:27;;;;;;;6.40;2.10;;;26.90;99.90;;;;;;4914940;29;20463;-86
2023/09/02 11:23:08;;;;;;;3.58;2.40;;;27.00;99.90;;;;;;4915068;29;20098;-85
2023/09/02 11:25:41;;;;;;;3.88;1.80;;;27.20;99.90;;;;;;4915397;29;20649;-86
2023/09/02 11:28:08;;;;;;;3.67;1.88;;;27.40;99.90;;;;;;4915813;29;20024;-86
2023/09/02 11:30:38;;;;;;;5.65;2.17;;;27.70;99.90;;;;;;4915032;29;20026;-85
2023/09/02 11:33:04;;;;;;;4.28;2.05;;;28.00;99.90;;;;;;4916069;29;20674;-87
2023/09/02 11:35:33;;;;;;;3.05;1.75;;;28.10;99.90;;;;;;4917104;29;20036;-86
2023/09/02 11:38:00;;;;;;;3.00;1.67;;;28.00;99.90;;;;;;4916380;29;20083;-86
2023/09/02 11:40:27;;;;;;;5.68;2.15;;;28.20;99.90;;;;;;4915596;29;20518;-86
2023/09/02 11:42:53;;;;;;;4.82;1.90;;;28.40;99.90;;;;;;4915461;29;20083;-85
2023/09/02 11:45:20;;;;;;;6.70;1.60;;;28.60;99.90;;;;;;4916568;29;20049;-86
2023/09/02 11:47:49;;;;;;;2.85;1.77;;;28.60;99.90;;;;;;4915181;29;20039;-86
2023/09/02 11:50:17;;;;;;;4.30;2.05;;;28.80;99.90;;;;;;4918790;29;20035;-86
2023/09/02 11:52:43;;;;;;;3.55;1.80;;;28.80;99.90;;;;;;4917778;29;20121;-86
2023/09/02 11:55:18;;;;;;;4.65;1.92;;;28.80;99.90;;;;;;4915713;29;20035;-85
2023/09/02 11:57:46;;;;;;;3.80;1.80;;;28.90;99.90;;;;;;4915174;29;20051;-86
2023/09/02 12:00:20;;;;;;;3.30;1.75;;;29.00;99.90;;;;;;4917245;29;21075;-86
2023/09/02 12:02:47;;;;;;;2.50;1.70;;;28.80;99.90;;;;;;4915407;29;20032;-86
2023/09/02 12:05:14;;;;;;;3.33;1.48;;;28.80;99.90;;;;;;4916011;29;20115;-86
2023/09/02 12:07:45;;;;;;;4.68;2.25;;;28.50;99.90;;;;;;4914781;29;20032;-86
2023/09/02 12:10:13;;;;;;;2.80;1.80;;;28.20;99.90;;;;;;4914311;29;20400;-85
2023/09/02 12:12:41;;;;;;;2.97;1.77;;;28.20;99.90;;;;;;4918101;29;20032;-87
2023/09/02 12:15:13;;;;;;;2.80;1.83;;;28.50;99.90;;;;;;4912493;29;20033;-86
2023/09/02 12:17:39;;;;;;;2.60;1.55;;;28.50;99.90;;;;;;4913378;29;20028;-86
2023/09/02 12:20:07;;;;;;;2.90;1.73;;;28.00;99.90;;;;;;4914869;29;20038;-86
2023/09/02 12:22:33;;;;;;;4.75;1.90;;;27.70;99.90;;;;;;4915222;29;20036;-85
2023/09/02 12:25:19;;;;;;;3.72;1.75;;;27.60;99.90;;;;;;4915565;29;20031;-86
2023/09/02 12:27:44;;;;;;;5.18;2.03;;;27.50;99.90;;;;;;4916533;29;20063;-87
2023/09/02 12:30:11;;;;;;;3.60;2.08;;;27.60;99.90;;;;;;4916079;29;20111;-86
2023/09/02 12:32:37;;;;;;;4.53;1.58;;;27.70;99.90;;;;;;4917108;29;20079;-86
2023/09/02 12:35:09;;;;;;;3.95;1.58;;;27.80;99.90;;;;;;4917005;29;20404;-86
2023/09/02 12:37:35;;;;;;;3.67;1.70;;;28.00;99.90;;;;;;4914983;29;20070;-86
2023/09/02 12:40:10;;;;;;;3.20;1.90;;;28.00;99.90;;;;;;4918797;29;20119;-86
2023/09/02 12:42:36;;;;;;;3.63;1.70;;;28.10;99.90;;;;;;4917869;29;20027;-86
2023/09/02 12:45:04;;;;;;;2.92;1.55;;;28.10;99.90;;;;;;4918580;29;20039;-86
2023/09/02 12:47:30;;;;;;;5.35;1.90;;;28.30;99.90;;;;;;4918787;29;20036;-86
2023/09/02 12:49:57;;;;;;;3.30;2.00;;;28.50;99.90;;;;;;4917343;29;20391;-86